sensor_id;sensor_type;location;lat;lon;timestamp;temperature;humidity
17033;DHT22;63208;52.178;21.016;2023-06-26T00:03:40;18.30;99.90
17033;DHT22;63208;52.178;21.016;2023-06-26T00:06:07;18.10;99.90
17033;DHT22;63208;52.178;21.016;2023-06-26T00:08:33;18.20;99.90
17033;DHT22;63208;52.178;21.016;2023-06-26T00:11:00;18.10;99.90
17033;DHT22;63208;52.178;21.016;2023-06-26T00:13:27;18.10;99.90
17033;DHT22;63208;52.178;21.016;2023-06-26T00:15:54;18.40;99.90
17033;DHT22;63208;52.178;21.016;2023-06-26T00:18:21;18.10;99.90
17033;DHT22;63208;52.178;21.016;2023-06-26T00:20:50;18.10;99.90
17033;DHT22;63208;52.178;21.016;2023-06-26T00:23:17;18.10;99.90
17033;DHT22;63208;52.178;21.016;2023-06-26T00:25:44;18.10;99.90
17033;DHT22;63208;52.178;21.016;2023-06-26T00:28:10;18.10;99.90
17033;DHT22;63208;52.178;21.016;2023-06-26T00:30:37;18.00;99.90
17033;DHT22;63208;52.178;21.016;2023-06-26T00:33:04;18.00;99.90
17033;DHT22;63208;52.178;21.016;2023-06-26T00:35:31;17.80;99.90
17033;DHT22;63208;52.178;21.016;2023-06-26T00:37:59;17.90;99.90
17033;DHT22;63208;52.178;21.016;2023-06-26T00:40:26;17.80;99.90
17033;DHT22;63208;52.178;21.016;2023-06-26T00:42:53;17.80;99.90
17033;DHT22;63208;52.178;21.016;2023-06-26T00:45:20;17.80;99.90
17033;DHT22;63208;52.178;21.016;2023-06-26T00:47:47;17.80;99.90
17033;DHT22;63208;52.178;21.016;2023-06-26T00:50:14;17.70;99.90
17033;DHT22;63208;52.178;21.016;2023-06-26T00:52:41;17.70;99.90
17033;DHT22;63208;52.178;21.016;2023-06-26T00:55:09;17.60;99.90
17033;DHT22;63208;52.178;21.016;2023-06-26T00:57:36;17.60;99.90
17033;DHT22;63208;52.178;21.016;2023-06-26T01:00:04;17.50;99.90
17033;DHT22;63208;52.178;21.016;2023-06-26T01:02:31;17.80;99.90
17033;DHT22;63208;52.178;21.016;2023-06-26T01:05:00;17.50;99.90
17033;DHT22;63208;52.178;21.016;2023-06-26T01:07:28;17.50;99.90
17033;DHT22;63208;52.178;21.016;2023-06-26T01:09:58;17.50;99.90
17033;DHT22;63208;52.178;21.016;2023-06-26T01:12:26;17.30;99.90
17033;DHT22;63208;52.178;21.016;2023-06-26T01:14:53;17.30;99.90
17033;DHT22;63208;52.178;21.016;2023-06-26T01:17:20;17.30;99.90
17033;DHT22;63208;52.178;21.016;2023-06-26T01:19:48;17.30;99.90
17033;DHT22;63208;52.178;21.016;2023-06-26T01:22:19;17.30;99.90
17033;DHT22;63208;52.178;21.016;2023-06-26T01:24:56;17.30;99.90
17033;DHT22;63208;52.178;21.016;2023-06-26T01:27:30;17.50;99.90
17033;DHT22;63208;52.178;21.016;2023-06-26T01:30:00;17.10;99.90
17033;DHT22;63208;52.178;21.016;2023-06-26T01:32:29;17.00;99.90
17033;DHT22;63208;52.178;21.016;2023-06-26T01:34:57;17.30;99.90
17033;DHT22;63208;52.178;21.016;2023-06-26T01:44:46;17.20;99.90
17033;DHT22;63208;52.178;21.016;2023-06-26T01:47:18;17.30;99.90
17033;DHT22;63208;52.178;21.016;2023-06-26T01:49:47;17.30;99.90
17033;DHT22;63208;52.178;21.016;2023-06-26T01:52:20;16.90;99.90
17033;DHT22;63208;52.178;21.016;2023-06-26T01:55:03;17.10;99.90
17033;DHT22;63208;52.178;21.016;2023-06-26T01:57:32;17.00;99.90
17033;DHT22;63208;52.178;21.016;2023-06-26T02:00:03;17.10;99.90
17033;DHT22;63208;52.178;21.016;2023-06-26T02:02:31;16.80;99.90
17033;DHT22;63208;52.178;21.016;2023-06-26T02:17:18;16.90;99.90
17033;DHT22;63208;52.178;21.016;2023-06-26T02:22:13;16.90;99.90
17033;DHT22;63208;52.178;21.016;2023-06-26T02:34:30;16.80;99.90
17033;DHT22;63208;52.178;21.016;2023-06-26T02:39:25;16.60;99.90
17033;DHT22;63208;52.178;21.016;2023-06-26T02:41:52;16.70;99.90
17033;DHT22;63208;52.178;21.016;2023-06-26T02:51:42;16.50;99.90
17033;DHT22;63208;52.178;21.016;2023-06-26T02:59:03;16.60;99.90
17033;DHT22;63208;52.178;21.016;2023-06-26T03:18:43;16.60;99.90
17033;DHT22;63208;52.178;21.016;2023-06-26T03:21:10;16.70;99.90
17033;DHT22;63208;52.178;21.016;2023-06-26T03:23:37;16.80;99.90
17033;DHT22;63208;52.178;21.016;2023-06-26T03:26:08;16.70;99.90
17033;DHT22;63208;52.178;21.016;2023-06-26T03:43:20;17.00;99.90
17033;DHT22;63208;52.178;21.016;2023-06-26T03:58:07;17.30;99.90
17033;DHT22;63208;52.178;21.016;2023-06-26T04:00:35;17.50;99.90
17033;DHT22;63208;52.178;21.016;2023-06-26T04:17:47;17.80;99.90
17033;DHT22;63208;52.178;21.016;2023-06-26T04:25:08;17.70;99.90
17033;DHT22;63208;52.178;21.016;2023-06-26T04:30:13;17.90;99.90
17033;DHT22;63208;52.178;21.016;2023-06-26T04:32:41;17.90;99.90
17033;DHT22;63208;52.178;21.016;2023-06-26T04:35:09;18.00;99.90
17033;DHT22;63208;52.178;21.016;2023-06-26T04:40:05;17.90;99.90
17033;DHT22;63208;52.178;21.016;2023-06-26T04:42:32;18.30;99.90
17033;DHT22;63208;52.178;21.016;2023-06-26T04:47:27;18.00;99.90
17033;DHT22;63208;52.178;21.016;2023-06-26T04:49:54;18.30;99.90
17033;DHT22;63208;52.178;21.016;2023-06-26T04:52:22;18.40;99.90
17033;DHT22;63208;52.178;21.016;2023-06-26T04:54:49;18.40;99.90
17033;DHT22;63208;52.178;21.016;2023-06-26T04:57:16;18.30;99.90
17033;DHT22;63208;52.178;21.016;2023-06-26T04:59:44;18.60;99.90
17033;DHT22;63208;52.178;21.016;2023-06-26T05:04:40;19.00;99.90
17033;DHT22;63208;52.178;21.016;2023-06-26T05:09:36;18.70;99.90
17033;DHT22;63208;52.178;21.016;2023-06-26T05:14:31;19.10;99.90
17033;DHT22;63208;52.178;21.016;2023-06-26T05:19:24;19.10;99.90
17033;DHT22;63208;52.178;21.016;2023-06-26T05:21:52;19.10;99.90
17033;DHT22;63208;52.178;21.016;2023-06-26T05:24:19;19.40;99.90
17033;DHT22;63208;52.178;21.016;2023-06-26T05:36:41;19.60;99.90
17033;DHT22;63208;52.178;21.016;2023-06-26T05:39:11;19.70;99.90
17033;DHT22;63208;52.178;21.016;2023-06-26T05:41:51;19.90;99.90
17033;DHT22;63208;52.178;21.016;2023-06-26T05:44:20;19.90;99.90
17033;DHT22;63208;52.178;21.016;2023-06-26T05:46:47;19.90;99.90
17033;DHT22;63208;52.178;21.016;2023-06-26T05:49:13;20.10;99.90
17033;DHT22;63208;52.178;21.016;2023-06-26T05:51:41;20.10;99.90
17033;DHT22;63208;52.178;21.016;2023-06-26T05:54:08;20.30;99.90
17033;DHT22;63208;52.178;21.016;2023-06-26T05:56:40;20.50;99.90
17033;DHT22;63208;52.178;21.016;2023-06-26T05:59:10;20.30;99.90
17033;DHT22;63208;52.178;21.016;2023-06-26T06:01:37;20.40;99.90
17033;DHT22;63208;52.178;21.016;2023-06-26T06:07:28;20.70;99.90
17033;DHT22;63208;52.178;21.016;2023-06-26T06:12:40;20.80;99.90
17033;DHT22;63208;52.178;21.016;2023-06-26T06:15:09;21.20;99.90
17033;DHT22;63208;52.178;21.016;2023-06-26T06:18:00;20.70;99.90
17033;DHT22;63208;52.178;21.016;2023-06-26T06:25:21;21.00;99.90
17033;DHT22;63208;52.178;21.016;2023-06-26T06:30:17;21.30;99.90
17033;DHT22;63208;52.178;21.016;2023-06-26T06:33:01;21.50;99.90
17033;DHT22;63208;52.178;21.016;2023-06-26T06:37:55;21.80;99.90
17033;DHT22;63208;52.178;21.016;2023-06-26T06:40:22;21.60;99.90
17033;DHT22;63208;52.178;21.016;2023-06-26T06:53:38;22.00;99.90
17033;DHT22;63208;52.178;21.016;2023-06-26T06:56:05;21.80;99.90
17033;DHT22;63208;52.178;21.016;2023-06-26T06:58:32;21.90;99.90
17033;DHT22;63208;52.178;21.016;2023-06-26T07:01:01;21.90;99.90
17033;DHT22;63208;52.178;21.016;2023-06-26T07:03:31;22.00;99.90
17033;DHT22;63208;52.178;21.016;2023-06-26T07:05:57;22.00;99.90
17033;DHT22;63208;52.178;21.016;2023-06-26T07:08:35;22.20;99.90
17033;DHT22;63208;52.178;21.016;2023-06-26T07:11:02;22.20;99.90
17033;DHT22;63208;52.178;21.016;2023-06-26T07:13:35;22.40;99.90
17033;DHT22;63208;52.178;21.016;2023-06-26T07:16:02;22.30;99.90
17033;DHT22;63208;52.178;21.016;2023-06-26T07:18:28;22.30;99.90
17033;DHT22;63208;52.178;21.016;2023-06-26T07:20:57;22.30;99.90
17033;DHT22;63208;52.178;21.016;2023-06-26T07:23:36;22.30;99.90
17033;DHT22;63208;52.178;21.016;2023-06-26T07:26:03;22.30;99.90
17033;DHT22;63208;52.178;21.016;2023-06-26T07:28:29;22.50;99.90
17033;DHT22;63208;52.178;21.016;2023-06-26T07:30:56;22.50;99.90
17033;DHT22;63208;52.178;21.016;2023-06-26T07:33:23;22.50;99.90
17033;DHT22;63208;52.178;21.016;2023-06-26T07:35:50;22.70;99.90
17033;DHT22;63208;52.178;21.016;2023-06-26T07:38:18;22.70;99.90
17033;DHT22;63208;52.178;21.016;2023-06-26T07:40:45;22.70;99.90
17033;DHT22;63208;52.178;21.016;2023-06-26T07:43:11;22.70;99.90
17033;DHT22;63208;52.178;21.016;2023-06-26T07:45:38;22.70;99.90
17033;DHT22;63208;52.178;21.016;2023-06-26T07:48:06;22.70;99.90
17033;DHT22;63208;52.178;21.016;2023-06-26T07:50:34;22.80;99.90
17033;DHT22;63208;52.178;21.016;2023-06-26T07:53:01;22.80;99.90
17033;DHT22;63208;52.178;21.016;2023-06-26T07:55:45;22.80;99.90
17033;DHT22;63208;52.178;21.016;2023-06-26T07:58:11;22.50;99.90
17033;DHT22;63208;52.178;21.016;2023-06-26T08:03:05;23.10;99.90
17033;DHT22;63208;52.178;21.016;2023-06-26T08:05:32;22.80;99.90
17033;DHT22;63208;52.178;21.016;2023-06-26T08:07:59;22.90;99.90
17033;DHT22;63208;52.178;21.016;2023-06-26T08:10:27;23.00;99.90
17033;DHT22;63208;52.178;21.016;2023-06-26T08:12:55;23.30;99.90
17033;DHT22;63208;52.178;21.016;2023-06-26T08:15:22;23.20;99.90
17033;DHT22;63208;52.178;21.016;2023-06-26T08:17:49;23.30;99.90
17033;DHT22;63208;52.178;21.016;2023-06-26T08:20:16;23.30;99.90
17033;DHT22;63208;52.178;21.016;2023-06-26T08:22:45;23.20;99.90
17033;DHT22;63208;52.178;21.016;2023-06-26T08:25:13;23.10;99.90
17033;DHT22;63208;52.178;21.016;2023-06-26T08:27:40;23.30;99.90
17033;DHT22;63208;52.178;21.016;2023-06-26T08:30:29;23.60;99.90
17033;DHT22;63208;52.178;21.016;2023-06-26T08:32:56;25.50;99.90
17033;DHT22;63208;52.178;21.016;2023-06-26T08:35:23;23.30;99.90
17033;DHT22;63208;52.178;21.016;2023-06-26T08:37:50;23.30;99.90
17033;DHT22;63208;52.178;21.016;2023-06-26T08:40:17;23.40;99.90
17033;DHT22;63208;52.178;21.016;2023-06-26T08:42:44;23.60;99.90
17033;DHT22;63208;52.178;21.016;2023-06-26T08:45:12;23.60;99.90
17033;DHT22;63208;52.178;21.016;2023-06-26T08:47:41;23.70;99.90
17033;DHT22;63208;52.178;21.016;2023-06-26T08:50:12;23.80;99.90
17033;DHT22;63208;52.178;21.016;2023-06-26T08:52:43;23.80;99.90
17033;DHT22;63208;52.178;21.016;2023-06-26T08:55:10;23.90;99.90
17033;DHT22;63208;52.178;21.016;2023-06-26T08:57:38;23.50;99.90
17033;DHT22;63208;52.178;21.016;2023-06-26T09:00:07;24.30;99.90
17033;DHT22;63208;52.178;21.016;2023-06-26T09:02:35;24.10;99.90
17033;DHT22;63208;52.178;21.016;2023-06-26T09:05:03;24.00;99.90
17033;DHT22;63208;52.178;21.016;2023-06-26T09:07:30;24.10;99.90
17033;DHT22;63208;52.178;21.016;2023-06-26T09:09:57;24.10;99.90
17033;DHT22;63208;52.178;21.016;2023-06-26T09:12:26;24.10;99.90
17033;DHT22;63208;52.178;21.016;2023-06-26T10:18:51;25.00;99.90
17033;DHT22;63208;52.178;21.016;2023-06-26T10:21:20;25.00;99.90
17033;DHT22;63208;52.178;21.016;2023-06-26T10:23:49;25.00;99.90
17033;DHT22;63208;52.178;21.016;2023-06-26T10:29:38;25.50;99.90
17033;DHT22;63208;52.178;21.016;2023-06-26T10:32:10;24.80;99.90
17033;DHT22;63208;52.178;21.016;2023-06-26T10:34:38;24.90;99.90
17033;DHT22;63208;52.178;21.016;2023-06-26T10:37:07;25.10;99.90
17033;DHT22;63208;52.178;21.016;2023-06-26T10:39:46;25.40;99.90
17033;DHT22;63208;52.178;21.016;2023-06-26T10:42:15;25.30;96.90
17033;DHT22;63208;52.178;21.016;2023-06-26T10:44:42;25.40;95.60
17033;DHT22;63208;52.178;21.016;2023-06-26T10:47:11;25.40;94.70
17033;DHT22;63208;52.178;21.016;2023-06-26T10:49:38;25.40;94.90
17033;DHT22;63208;52.178;21.016;2023-06-26T10:58:03;25.70;99.90
17033;DHT22;63208;52.178;21.016;2023-06-26T11:00:30;25.70;99.90
17033;DHT22;63208;52.178;21.016;2023-06-26T11:02:58;25.50;95.00
17033;DHT22;63208;52.178;21.016;2023-06-26T11:05:27;25.40;99.00
17033;DHT22;63208;52.178;21.016;2023-06-26T11:08:04;25.50;96.90
17033;DHT22;63208;52.178;21.016;2023-06-26T11:11:01;25.40;95.30
17033;DHT22;63208;52.178;21.016;2023-06-26T11:13:29;25.90;95.30
17033;DHT22;63208;52.178;21.016;2023-06-26T11:15:57;25.60;97.70
17033;DHT22;63208;52.178;21.016;2023-06-26T11:18:27;25.60;97.90
17033;DHT22;63208;52.178;21.016;2023-06-26T11:26:44;25.90;93.40
17033;DHT22;63208;52.178;21.016;2023-06-26T11:29:12;26.30;97.20
17033;DHT22;63208;52.178;21.016;2023-06-26T11:31:41;26.30;92.80
17033;DHT22;63208;52.178;21.016;2023-06-26T11:34:10;26.20;96.00
17033;DHT22;63208;52.178;21.016;2023-06-26T11:36:37;26.50;97.00
17033;DHT22;63208;52.178;21.016;2023-06-26T11:39:05;26.50;92.10
17033;DHT22;63208;52.178;21.016;2023-06-26T11:41:34;26.20;90.60
17033;DHT22;63208;52.178;21.016;2023-06-26T11:44:01;26.20;90.20
17033;DHT22;63208;52.178;21.016;2023-06-26T11:46:28;26.50;91.10
17033;DHT22;63208;52.178;21.016;2023-06-26T11:48:55;26.40;88.20
17033;DHT22;63208;52.178;21.016;2023-06-26T11:51:23;26.60;90.00
17033;DHT22;63208;52.178;21.016;2023-06-26T11:53:50;26.70;89.10
17033;DHT22;63208;52.178;21.016;2023-06-26T11:56:18;26.50;90.00
17033;DHT22;63208;52.178;21.016;2023-06-26T11:58:57;26.50;89.90
17033;DHT22;63208;52.178;21.016;2023-06-26T12:01:26;26.60;89.60
17033;DHT22;63208;52.178;21.016;2023-06-26T12:04:04;26.90;88.40
17033;DHT22;63208;52.178;21.016;2023-06-26T12:06:51;26.90;88.10
17033;DHT22;63208;52.178;21.016;2023-06-26T12:09:23;26.80;86.40
17033;DHT22;63208;52.178;21.016;2023-06-26T12:11:53;26.90;84.80
17033;DHT22;63208;52.178;21.016;2023-06-26T12:14:22;26.90;82.40
17033;DHT22;63208;52.178;21.016;2023-06-26T12:17:12;27.00;81.60
17033;DHT22;63208;52.178;21.016;2023-06-26T12:19:42;27.00;81.70
17033;DHT22;63208;52.178;21.016;2023-06-26T12:22:11;27.30;82.60
17033;DHT22;63208;52.178;21.016;2023-06-26T12:24:38;27.50;78.60
17033;DHT22;63208;52.178;21.016;2023-06-26T12:27:08;27.50;79.10
17033;DHT22;63208;52.178;21.016;2023-06-26T12:29:36;27.40;79.30
17033;DHT22;63208;52.178;21.016;2023-06-26T12:32:03;27.60;78.30
17033;DHT22;63208;52.178;21.016;2023-06-26T12:34:32;27.60;77.60
17033;DHT22;63208;52.178;21.016;2023-06-26T12:37:01;27.60;77.40
17033;DHT22;63208;52.178;21.016;2023-06-26T12:39:45;27.80;77.40
17033;DHT22;63208;52.178;21.016;2023-06-26T12:42:14;28.30;76.80
17033;DHT22;63208;52.178;21.016;2023-06-26T12:44:41;27.90;75.70
17033;DHT22;63208;52.178;21.016;2023-06-26T12:47:08;27.80;75.30
17033;DHT22;63208;52.178;21.016;2023-06-26T12:49:36;28.10;75.60
17033;DHT22;63208;52.178;21.016;2023-06-26T12:52:05;28.60;75.50
17033;DHT22;63208;52.178;21.016;2023-06-26T12:54:34;28.50;72.80
17033;DHT22;63208;52.178;21.016;2023-06-26T12:57:01;28.00;73.00
17033;DHT22;63208;52.178;21.016;2023-06-26T12:59:29;27.90;72.40
17033;DHT22;63208;52.178;21.016;2023-06-26T13:01:56;27.60;72.50
17033;DHT22;63208;52.178;21.016;2023-06-26T13:04:23;27.80;73.30
17033;DHT22;63208;52.178;21.016;2023-06-26T13:09:17;27.40;75.90
17033;DHT22;63208;52.178;21.016;2023-06-26T13:11:45;27.10;77.20
17033;DHT22;63208;52.178;21.016;2023-06-26T13:14:12;27.20;77.40
17033;DHT22;63208;52.178;21.016;2023-06-26T13:16:40;27.70;76.80
17033;DHT22;63208;52.178;21.016;2023-06-26T13:19:07;28.60;76.20
17033;DHT22;63208;52.178;21.016;2023-06-26T13:21:34;28.60;75.10
17033;DHT22;63208;52.178;21.016;2023-06-26T13:24:01;28.50;73.80
17033;DHT22;63208;52.178;21.016;2023-06-26T13:26:29;28.50;74.10
17033;DHT22;63208;52.178;21.016;2023-06-26T13:29:07;29.50;71.40
17033;DHT22;63208;52.178;21.016;2023-06-26T13:31:34;29.90;88.30
17033;DHT22;63208;52.178;21.016;2023-06-26T13:34:02;30.20;71.50
17033;DHT22;63208;52.178;21.016;2023-06-26T13:36:30;30.30;70.60
17033;DHT22;63208;52.178;21.016;2023-06-26T13:39:00;28.90;71.60
17033;DHT22;63208;52.178;21.016;2023-06-26T13:41:27;28.40;71.10
17033;DHT22;63208;52.178;21.016;2023-06-26T13:43:54;28.40;71.70
17033;DHT22;63208;52.178;21.016;2023-06-26T13:46:24;28.40;71.40
17033;DHT22;63208;52.178;21.016;2023-06-26T13:48:53;27.40;71.70
17033;DHT22;63208;52.178;21.016;2023-06-26T13:51:20;28.60;71.40
17033;DHT22;63208;52.178;21.016;2023-06-26T13:57:09;32.70;67.90
17033;DHT22;63208;52.178;21.016;2023-06-26T13:59:37;32.70;62.50
17033;DHT22;63208;52.178;21.016;2023-06-26T14:02:07;33.00;63.10
17033;DHT22;63208;52.178;21.016;2023-06-26T14:04:34;34.00;87.30
17033;DHT22;63208;52.178;21.016;2023-06-26T14:07:03;34.10;62.30
17033;DHT22;63208;52.178;21.016;2023-06-26T14:09:30;32.80;59.80
17033;DHT22;63208;52.178;21.016;2023-06-26T14:17:43;31.70;59.50
17033;DHT22;63208;52.178;21.016;2023-06-26T14:20:11;31.70;59.60
17033;DHT22;63208;52.178;21.016;2023-06-26T14:25:21;29.30;62.20
17033;DHT22;63208;52.178;21.016;2023-06-26T14:27:48;29.10;62.30
17033;DHT22;63208;52.178;21.016;2023-06-26T14:30:15;28.40;62.70
17033;DHT22;63208;52.178;21.016;2023-06-26T14:35:10;27.80;62.50
17033;DHT22;63208;52.178;21.016;2023-06-26T14:37:39;27.40;76.90
17033;DHT22;63208;52.178;21.016;2023-06-26T14:42:43;30.60;59.50
17033;DHT22;63208;52.178;21.016;2023-06-26T14:45:11;30.60;60.20
17033;DHT22;63208;52.178;21.016;2023-06-26T14:47:38;29.70;61.50
17033;DHT22;63208;52.178;21.016;2023-06-26T14:50:05;31.10;71.60
17033;DHT22;63208;52.178;21.016;2023-06-26T14:52:37;31.10;74.00
17033;DHT22;63208;52.178;21.016;2023-06-26T14:58:40;33.40;57.70
17033;DHT22;63208;52.178;21.016;2023-06-26T15:01:07;30.70;55.30
17033;DHT22;63208;52.178;21.016;2023-06-26T15:03:34;33.70;57.00
17033;DHT22;63208;52.178;21.016;2023-06-26T15:06:01;32.30;56.80
17033;DHT22;63208;52.178;21.016;2023-06-26T15:08:29;32.10;56.50
17033;DHT22;63208;52.178;21.016;2023-06-26T15:10:56;32.10;56.50
17033;DHT22;63208;52.178;21.016;2023-06-26T15:13:23;31.10;57.80
17033;DHT22;63208;52.178;21.016;2023-06-26T15:15:49;30.40;58.70
17033;DHT22;63208;52.178;21.016;2023-06-26T15:20:43;29.90;58.80
17033;DHT22;63208;52.178;21.016;2023-06-26T15:23:10;28.90;60.80
17033;DHT22;63208;52.178;21.016;2023-06-26T15:25:38;28.10;62.10
17033;DHT22;63208;52.178;21.016;2023-06-26T15:28:06;28.40;62.00
17033;DHT22;63208;52.178;21.016;2023-06-26T15:30:33;29.30;61.10
17033;DHT22;63208;52.178;21.016;2023-06-26T15:33:03;30.60;71.20
17033;DHT22;63208;52.178;21.016;2023-06-26T15:35:34;31.40;69.80
17033;DHT22;63208;52.178;21.016;2023-06-26T15:38:01;31.50;59.00
17033;DHT22;63208;52.178;21.016;2023-06-26T15:40:55;32.70;67.60
17033;DHT22;63208;52.178;21.016;2023-06-26T15:43:22;32.80;56.60
17033;DHT22;63208;52.178;21.016;2023-06-26T15:45:49;32.60;56.60
17033;DHT22;63208;52.178;21.016;2023-06-26T15:48:15;32.30;57.10
17033;DHT22;63208;52.178;21.016;2023-06-26T15:50:42;31.90;55.90
17033;DHT22;63208;52.178;21.016;2023-06-26T15:53:09;34.30;69.00
17033;DHT22;63208;52.178;21.016;2023-06-26T15:59:13;30.10;58.10
17033;DHT22;63208;52.178;21.016;2023-06-26T16:01:44;29.70;73.00
17033;DHT22;63208;52.178;21.016;2023-06-26T16:04:11;29.40;73.00
17033;DHT22;63208;52.178;21.016;2023-06-26T16:06:40;29.40;59.60
17033;DHT22;63208;52.178;21.016;2023-06-26T16:09:07;29.10;73.10
17033;DHT22;63208;52.178;21.016;2023-06-26T16:11:34;28.90;59.90
17033;DHT22;63208;52.178;21.016;2023-06-26T16:14:01;28.70;62.20
17033;DHT22;63208;52.178;21.016;2023-06-26T16:16:30;28.60;61.70
17033;DHT22;63208;52.178;21.016;2023-06-26T16:18:56;28.60;62.70
17033;DHT22;63208;52.178;21.016;2023-06-26T16:21:23;28.60;63.70
17033;DHT22;63208;52.178;21.016;2023-06-26T16:23:50;28.40;63.30
17033;DHT22;63208;52.178;21.016;2023-06-26T16:26:17;28.20;63.30
17033;DHT22;63208;52.178;21.016;2023-06-26T16:28:44;28.10;63.80
17033;DHT22;63208;52.178;21.016;2023-06-26T16:34:37;27.80;62.70
17033;DHT22;63208;52.178;21.016;2023-06-26T16:46:56;28.00;62.80
17033;DHT22;63208;52.178;21.016;2023-06-26T16:49:37;28.00;63.50
17033;DHT22;63208;52.178;21.016;2023-06-26T16:52:04;27.70;76.30
17033;DHT22;63208;52.178;21.016;2023-06-26T16:56:58;27.70;63.00
17033;DHT22;63208;52.178;21.016;2023-06-26T16:59:26;27.60;64.20
17033;DHT22;63208;52.178;21.016;2023-06-26T17:01:52;27.60;64.30
17033;DHT22;63208;52.178;21.016;2023-06-26T17:04:21;27.60;63.00
17033;DHT22;63208;52.178;21.016;2023-06-26T17:06:49;27.50;63.00
17033;DHT22;63208;52.178;21.016;2023-06-26T17:09:28;27.50;64.30
17033;DHT22;63208;52.178;21.016;2023-06-26T17:14:22;27.40;78.80
17033;DHT22;63208;52.178;21.016;2023-06-26T17:16:49;27.40;64.80
17033;DHT22;63208;52.178;21.016;2023-06-26T17:19:16;27.50;65.00
17033;DHT22;63208;52.178;21.016;2023-06-26T17:21:43;27.70;76.90
17033;DHT22;63208;52.178;21.016;2023-06-26T17:24:14;27.50;65.40
17033;DHT22;63208;52.178;21.016;2023-06-26T17:26:41;27.50;64.90
17033;DHT22;63208;52.178;21.016;2023-06-26T17:29:09;27.40;65.90
17033;DHT22;63208;52.178;21.016;2023-06-26T17:31:36;27.40;66.60
17033;DHT22;63208;52.178;21.016;2023-06-26T17:34:03;27.40;66.00
17033;DHT22;63208;52.178;21.016;2023-06-26T17:36:29;27.40;66.20
17033;DHT22;63208;52.178;21.016;2023-06-26T17:52:26;27.20;65.80
17033;DHT22;63208;52.178;21.016;2023-06-26T17:54:55;27.10;66.50
17033;DHT22;63208;52.178;21.016;2023-06-26T17:57:22;27.10;66.80
17033;DHT22;63208;52.178;21.016;2023-06-26T17:59:48;27.10;67.50
17033;DHT22;63208;52.178;21.016;2023-06-26T18:02:15;27.00;66.90
17033;DHT22;63208;52.178;21.016;2023-06-26T18:04:42;26.90;66.60
17033;DHT22;63208;52.178;21.016;2023-06-26T18:07:09;26.90;66.60
17033;DHT22;63208;52.178;21.016;2023-06-26T18:09:37;26.90;66.80
17033;DHT22;63208;52.178;21.016;2023-06-26T18:12:06;26.70;66.30
17033;DHT22;63208;52.178;21.016;2023-06-26T18:14:33;26.80;66.40
17033;DHT22;63208;52.178;21.016;2023-06-26T18:17:00;26.70;67.40
17033;DHT22;63208;52.178;21.016;2023-06-26T18:19:27;26.70;67.50
17033;DHT22;63208;52.178;21.016;2023-06-26T18:21:54;26.60;67.60
17033;DHT22;63208;52.178;21.016;2023-06-26T18:24:21;26.60;67.70
17033;DHT22;63208;52.178;21.016;2023-06-26T18:26:49;26.50;67.80
17033;DHT22;63208;52.178;21.016;2023-06-26T18:29:16;26.40;68.10
17033;DHT22;63208;52.178;21.016;2023-06-26T18:31:43;26.40;68.40
17033;DHT22;63208;52.178;21.016;2023-06-26T18:34:10;26.40;68.70
17033;DHT22;63208;52.178;21.016;2023-06-26T18:39:04;26.30;68.20
17033;DHT22;63208;52.178;21.016;2023-06-26T18:41:33;26.30;70.00
17033;DHT22;63208;52.178;21.016;2023-06-26T18:44:01;26.10;72.40
17033;DHT22;63208;52.178;21.016;2023-06-26T18:46:28;26.00;72.00
17033;DHT22;63208;52.178;21.016;2023-06-26T18:49:02;26.00;71.40
17033;DHT22;63208;52.178;21.016;2023-06-26T18:51:29;26.00;80.90
17033;DHT22;63208;52.178;21.016;2023-06-26T18:57:22;26.00;82.10
17033;DHT22;63208;52.178;21.016;2023-06-26T18:59:56;25.90;83.20
17033;DHT22;63208;52.178;21.016;2023-06-26T19:02:37;25.70;75.10
17033;DHT22;63208;52.178;21.016;2023-06-26T19:05:05;25.60;75.20
17033;DHT22;63208;52.178;21.016;2023-06-26T19:10:54;25.10;91.30
17033;DHT22;63208;52.178;21.016;2023-06-26T19:13:21;25.00;80.30
17033;DHT22;63208;52.178;21.016;2023-06-26T19:15:49;24.90;82.30
17033;DHT22;63208;52.178;21.016;2023-06-26T19:18:16;24.90;81.50
17033;DHT22;63208;52.178;21.016;2023-06-26T19:20:59;24.60;92.20
17033;DHT22;63208;52.178;21.016;2023-06-26T19:23:26;24.60;92.20
17033;DHT22;63208;52.178;21.016;2023-06-26T19:25:53;24.70;82.70
17033;DHT22;63208;52.178;21.016;2023-06-26T19:28:21;24.60;81.40
17033;DHT22;63208;52.178;21.016;2023-06-26T19:30:49;24.50;82.60
17033;DHT22;63208;52.178;21.016;2023-06-26T19:33:16;24.50;83.40
17033;DHT22;63208;52.178;21.016;2023-06-26T19:35:43;24.30;84.50
17033;DHT22;63208;52.178;21.016;2023-06-26T19:38:09;24.30;85.00
17033;DHT22;63208;52.178;21.016;2023-06-26T19:40:36;24.20;85.80
17033;DHT22;63208;52.178;21.016;2023-06-26T19:43:04;24.20;85.30
17033;DHT22;63208;52.178;21.016;2023-06-26T19:47:59;24.00;86.50
17033;DHT22;63208;52.178;21.016;2023-06-26T19:50:27;24.00;86.90
17033;DHT22;63208;52.178;21.016;2023-06-26T19:52:54;24.00;89.60
17033;DHT22;63208;52.178;21.016;2023-06-26T19:55:21;23.90;89.80
17033;DHT22;63208;52.178;21.016;2023-06-26T19:57:48;23.90;90.90
17033;DHT22;63208;52.178;21.016;2023-06-26T20:00:15;23.90;90.80
17033;DHT22;63208;52.178;21.016;2023-06-26T20:02:43;23.90;90.90
17033;DHT22;63208;52.178;21.016;2023-06-26T20:05:11;23.90;92.20
17033;DHT22;63208;52.178;21.016;2023-06-26T20:07:38;23.80;92.80
17033;DHT22;63208;52.178;21.016;2023-06-26T20:10:06;23.50;97.60
17033;DHT22;63208;52.178;21.016;2023-06-26T20:12:33;23.70;92.40
17033;DHT22;63208;52.178;21.016;2023-06-26T20:15:00;23.60;92.80
17033;DHT22;63208;52.178;21.016;2023-06-26T20:17:27;23.60;92.80
17033;DHT22;63208;52.178;21.016;2023-06-26T20:20:07;23.50;93.60
17033;DHT22;63208;52.178;21.016;2023-06-26T20:25:41;23.40;99.90
17033;DHT22;63208;52.178;21.016;2023-06-26T20:28:08;23.40;95.20
17033;DHT22;63208;52.178;21.016;2023-06-26T20:30:35;23.40;95.00
17033;DHT22;63208;52.178;21.016;2023-06-26T20:33:02;23.30;94.90
17033;DHT22;63208;52.178;21.016;2023-06-26T20:35:29;23.30;95.50
17033;DHT22;63208;52.178;21.016;2023-06-26T20:37:55;23.20;95.60
17033;DHT22;63208;52.178;21.016;2023-06-26T20:40:23;23.20;95.60
17033;DHT22;63208;52.178;21.016;2023-06-26T20:42:52;23.10;97.60
17033;DHT22;63208;52.178;21.016;2023-06-26T20:45:20;23.00;97.00
17033;DHT22;63208;52.178;21.016;2023-06-26T20:47:47;23.00;96.10